createdAt,value
2018-07-13T00:01:38.471Z,17.20
2018-07-13T00:04:07.515Z,17.20
2018-07-13T00:06:36.576Z,17.10
2018-07-13T00:09:08.081Z,17.00
2018-07-13T00:11:37.415Z,17.00
2018-07-13T00:14:16.763Z,16.90
2018-07-13T00:16:46.669Z,16.90
2018-07-13T00:19:16.356Z,16.80
2018-07-13T00:21:45.424Z,16.70
2018-07-13T00:26:43.161Z,16.60
2018-07-13T00:29:12.434Z,16.50
2018-07-13T00:31:42.476Z,16.50
2018-07-13T00:34:11.513Z,16.60
2018-07-13T00:36:40.571Z,16.60
2018-07-13T00:39:11.080Z,16.50
2018-07-13T00:41:40.143Z,16.50
2018-07-13T00:44:09.470Z,16.60
2018-07-13T00:46:38.574Z,16.70
2018-07-13T00:49:07.620Z,16.60
2018-07-13T00:51:36.679Z,16.60
2018-07-13T00:54:05.740Z,16.70
2018-07-13T00:56:34.784Z,16.80
2018-07-13T00:59:03.856Z,16.80
2018-07-13T01:01:32.887Z,16.90
2018-07-13T01:04:01.943Z,16.90
2018-07-13T01:06:30.987Z,16.90
2018-07-13T01:09:00.072Z,16.90
2018-07-13T01:11:29.114Z,16.90
2018-07-13T01:13:58.184Z,17.00
2018-07-13T01:16:27.223Z,17.00
2018-07-13T01:18:56.283Z,16.90
2018-07-13T01:28:51.439Z,16.70
2018-07-13T01:33:49.175Z,16.30
2018-07-13T01:36:18.227Z,16.20
2018-07-13T01:38:47.291Z,16.20
2018-07-13T01:41:16.343Z,16.10
2018-07-13T01:43:45.420Z,16.00
2018-07-13T01:46:14.467Z,16.00
2018-07-13T01:48:43.549Z,16.00
2018-07-13T01:51:12.587Z,16.00
2018-07-13T01:53:41.647Z,16.00
2018-07-13T01:56:10.708Z,16.00
2018-07-13T01:58:39.775Z,16.00
2018-07-13T02:01:08.832Z,16.00
2018-07-13T02:03:37.895Z,15.90
2018-07-13T02:06:06.943Z,15.80
2018-07-13T02:08:36.036Z,15.80
2018-07-13T02:11:05.126Z,15.80
2018-07-13T02:13:34.228Z,15.80
2018-07-13T02:16:03.288Z,15.80
2018-07-13T02:18:32.347Z,15.80
2018-07-13T02:23:30.108Z,15.80
2018-07-13T02:25:59.187Z,15.80
2018-07-13T02:28:28.252Z,15.70
2018-07-13T02:30:57.324Z,15.70
2018-07-13T02:38:23.763Z,15.60
2018-07-13T02:40:52.848Z,15.60
2018-07-13T02:43:21.912Z,15.60
2018-07-13T02:45:50.995Z,15.60
2018-07-13T02:48:20.059Z,15.60
2018-07-13T02:50:49.140Z,15.60
2018-07-13T02:53:18.204Z,15.50
2018-07-13T02:55:47.289Z,15.50
2018-07-13T02:58:16.442Z,15.50
2018-07-13T03:00:45.549Z,15.50
2018-07-13T03:08:12.040Z,15.40
2018-07-13T03:10:41.110Z,15.50
2018-07-13T03:13:10.151Z,15.50
2018-07-13T03:15:39.276Z,15.50
2018-07-13T03:18:08.332Z,15.50
2018-07-13T03:20:37.401Z,15.40
2018-07-13T03:28:03.877Z,15.30
2018-07-13T03:33:01.669Z,15.30
2018-07-13T03:37:59.419Z,15.30
2018-07-13T03:40:28.492Z,15.40
2018-07-13T03:42:57.531Z,15.50
2018-07-13T03:47:55.316Z,15.40
2018-07-13T03:52:53.108Z,15.40
2018-07-13T03:55:22.232Z,15.40
2018-07-13T03:57:51.303Z,15.30
2018-07-13T04:00:20.352Z,15.20
2018-07-13T04:02:49.493Z,15.30
2018-07-13T04:05:18.539Z,15.30
2018-07-13T04:07:47.623Z,15.40
2018-07-13T04:10:16.672Z,15.40
2018-07-13T04:15:14.587Z,15.40
2018-07-13T04:17:43.656Z,15.40
2018-07-13T04:22:41.392Z,15.50
2018-07-13T04:25:10.649Z,15.60
2018-07-13T04:30:08.456Z,15.70
2018-07-13T04:32:37.520Z,15.70
2018-07-13T04:35:06.583Z,15.80
2018-07-13T04:37:35.643Z,15.90
2018-07-13T04:40:04.792Z,15.90
2018-07-13T04:42:33.888Z,16.00
2018-07-13T04:45:02.932Z,16.20
2018-07-13T04:47:31.988Z,16.30
2018-07-13T04:52:29.764Z,16.50
2018-07-13T04:54:58.799Z,16.50
2018-07-13T04:57:27.860Z,16.70
2018-07-13T05:02:26.187Z,16.90
2018-07-13T05:04:55.231Z,17.00
2018-07-13T05:07:24.315Z,17.20
2018-07-13T05:09:53.372Z,17.40
2018-07-13T05:12:22.448Z,17.60
2018-07-13T05:17:20.195Z,17.80
2018-07-13T05:19:49.256Z,18.00
2018-07-13T05:22:18.328Z,18.20
2018-07-13T05:24:47.383Z,18.30
2018-07-13T05:27:16.466Z,18.40
2018-07-13T05:29:45.847Z,18.50
2018-07-13T05:32:14.891Z,18.50
2018-07-13T05:34:43.971Z,18.50
2018-07-13T05:37:13.299Z,18.40
2018-07-13T05:39:42.380Z,18.40
2018-07-13T05:42:11.440Z,18.50
2018-07-13T05:44:40.511Z,18.60
2018-07-13T05:47:09.559Z,18.60
2018-07-13T05:49:38.632Z,18.70
2018-07-13T05:52:07.703Z,18.80
2018-07-13T05:54:36.778Z,18.90
2018-07-13T05:59:34.596Z,18.90
2018-07-13T06:02:03.672Z,18.90
2018-07-13T06:04:32.812Z,19.10
2018-07-13T06:07:01.909Z,19.10
2018-07-13T06:09:30.986Z,19.10
2018-07-13T06:12:00.497Z,19.20
2018-07-13T06:14:29.568Z,19.20
2018-07-13T06:16:58.615Z,19.30
2018-07-13T06:19:27.709Z,19.30
2018-07-13T06:21:56.769Z,19.40
2018-07-13T06:24:25.843Z,19.40
2018-07-13T06:26:54.895Z,19.60
2018-07-13T06:29:23.971Z,19.70
2018-07-13T06:31:53.032Z,19.80
2018-07-13T06:36:50.777Z,20.00
2018-07-13T06:39:19.849Z,20.20
2018-07-13T06:41:48.899Z,20.20
2018-07-13T06:49:17.017Z,20.00
2018-07-13T06:51:46.200Z,19.90
2018-07-13T06:54:15.508Z,19.90
2018-07-13T06:56:44.609Z,20.00
2018-07-13T06:59:15.173Z,20.00
2018-07-13T07:01:44.872Z,20.10
2018-07-13T07:04:36.802Z,20.20
2018-07-13T07:07:10.424Z,20.30
2018-07-13T07:09:40.320Z,20.40
2018-07-13T07:13:18.259Z,20.40
2018-07-13T07:15:47.096Z,20.50
2018-07-13T07:18:16.152Z,20.70
2018-07-13T07:20:45.289Z,20.80
2018-07-13T07:25:43.040Z,21.10
2018-07-13T07:28:12.091Z,21.20
2018-07-13T07:30:41.217Z,21.40
2018-07-13T07:33:10.243Z,21.60
2018-07-13T07:35:39.316Z,21.80
2018-07-13T07:38:08.371Z,21.80
2018-07-13T07:40:37.464Z,21.90
2018-07-13T07:43:06.535Z,22.10
2018-07-13T07:45:35.607Z,22.20
2018-07-13T07:48:04.747Z,22.40
2018-07-13T07:50:33.824Z,22.40
2018-07-13T07:53:02.863Z,22.40
2018-07-13T07:55:31.924Z,22.60
2018-07-13T08:02:58.360Z,22.80
2018-07-13T08:05:27.453Z,22.70
2018-07-13T08:07:56.575Z,22.90
2018-07-13T08:10:25.619Z,23.00
2018-07-13T08:12:55.684Z,23.10
2018-07-13T08:15:24.753Z,23.10
2018-07-13T08:17:53.812Z,23.10
2018-07-13T08:20:26.375Z,23.20
2018-07-13T08:22:57.131Z,23.30
2018-07-13T08:25:27.660Z,23.50
2018-07-13T08:28:00.456Z,23.70
2018-07-13T08:30:38.119Z,23.70
2018-07-13T08:33:07.175Z,23.80
2018-07-13T08:35:36.284Z,24.00
2018-07-13T08:38:05.740Z,24.20
2018-07-13T08:40:34.779Z,24.40
2018-07-13T08:43:03.859Z,24.40
2018-07-13T08:45:32.932Z,24.60
2018-07-13T08:48:02.000Z,24.70
2018-07-13T08:53:00.142Z,24.90
2018-07-13T08:55:29.411Z,24.90
2018-07-13T08:57:58.683Z,25.10
2018-07-13T09:00:27.736Z,25.30
2018-07-13T09:02:56.812Z,25.20
2018-07-13T09:05:25.868Z,25.30
2018-07-13T09:07:55.038Z,25.40
2018-07-13T09:10:24.083Z,25.50
2018-07-13T09:12:53.212Z,25.40
2018-07-13T09:20:19.572Z,25.80
2018-07-13T09:22:48.632Z,25.80
2018-07-13T09:27:46.361Z,25.90
2018-07-13T09:30:15.408Z,25.90
2018-07-13T09:32:44.488Z,26.00
2018-07-13T09:35:13.568Z,26.10
2018-07-13T09:37:42.620Z,26.10
2018-07-13T09:40:11.708Z,26.10
2018-07-13T09:42:40.751Z,26.10
2018-07-13T09:45:09.807Z,26.20
2018-07-13T09:47:38.851Z,26.30
2018-07-13T09:50:07.911Z,26.40
2018-07-13T09:52:36.951Z,26.50
2018-07-13T09:55:06.092Z,26.60
2018-07-13T09:57:35.148Z,26.70
2018-07-13T10:00:04.284Z,26.70
2018-07-13T10:02:33.333Z,26.70
2018-07-13T10:05:02.414Z,26.60
2018-07-13T10:07:31.477Z,26.70
2018-07-13T10:10:00.542Z,27.00
2018-07-13T10:12:29.597Z,27.00
2018-07-13T10:14:58.663Z,27.20
2018-07-13T10:17:27.722Z,27.20
2018-07-13T10:19:56.793Z,27.20
2018-07-13T10:22:27.591Z,27.10
2018-07-13T10:24:59.151Z,27.10
2018-07-13T10:27:31.012Z,27.30
2018-07-13T10:30:01.457Z,27.40
2018-07-13T10:32:31.127Z,27.30
2018-07-13T10:35:01.775Z,27.40
2018-07-13T10:37:31.240Z,27.20
2018-07-13T10:40:01.095Z,27.20
2018-07-13T10:42:30.135Z,27.40
2018-07-13T10:44:59.203Z,27.60
2018-07-13T10:47:28.247Z,27.90
2018-07-13T10:52:26.019Z,28.30
2018-07-13T10:54:55.088Z,28.30
2018-07-13T10:57:24.139Z,28.40
2018-07-13T10:59:53.216Z,27.80
2018-07-13T11:02:22.255Z,28.00
2018-07-13T11:04:51.300Z,27.90
2018-07-13T11:07:20.404Z,27.80
2018-07-13T11:09:49.462Z,27.50
2018-07-13T11:12:18.537Z,27.70
2018-07-13T11:14:47.593Z,28.00
2018-07-13T11:17:16.669Z,28.40
2018-07-13T11:19:45.728Z,28.60
2018-07-13T11:22:14.804Z,28.60
2018-07-13T11:24:43.851Z,28.40
2018-07-13T11:27:12.923Z,28.50
2018-07-13T11:29:41.998Z,28.40
2018-07-13T11:32:11.523Z,28.70
2018-07-13T11:34:40.572Z,28.70
2018-07-13T11:39:38.348Z,29.10
2018-07-13T11:42:07.419Z,29.20
2018-07-13T11:44:36.500Z,29.20
2018-07-13T11:47:05.579Z,29.70
2018-07-13T11:49:35.479Z,29.60
2018-07-13T11:52:04.599Z,29.20
2018-07-13T11:54:33.639Z,29.00
2018-07-13T11:57:02.707Z,28.80
2018-07-13T11:59:31.768Z,29.20
2018-07-13T12:02:00.840Z,29.70
2018-07-13T12:06:58.648Z,29.70
2018-07-13T12:09:27.700Z,29.80
2018-07-13T12:14:25.548Z,30.50
2018-07-13T12:16:55.793Z,30.40
2018-07-13T12:19:25.320Z,30.20
2018-07-13T12:21:54.363Z,30.20
2018-07-13T12:24:23.432Z,30.50
2018-07-13T12:29:21.173Z,30.40
2018-07-13T12:31:50.210Z,30.90
2018-07-13T12:36:47.953Z,31.50
2018-07-13T12:39:17.053Z,31.40
2018-07-13T12:41:46.108Z,32.00
2018-07-13T12:44:15.174Z,31.60
2018-07-13T12:49:13.303Z,31.80
2018-07-13T12:51:42.591Z,31.70
2018-07-13T12:54:11.909Z,31.30
2018-07-13T12:56:40.911Z,31.10
2018-07-13T12:59:09.987Z,31.20
2018-07-13T13:01:39.035Z,31.30
2018-07-13T13:04:08.112Z,31.60
2018-07-13T13:06:37.163Z,31.70
2018-07-13T13:09:06.496Z,31.50
2018-07-13T13:11:35.543Z,31.10
2018-07-13T13:19:01.965Z,31.80
2018-07-13T13:21:31.183Z,31.70
2018-07-13T13:24:00.204Z,32.50
2018-07-13T13:28:57.968Z,33.30
2018-07-13T13:31:27.039Z,33.30
2018-07-13T13:33:56.108Z,34.50
2018-07-13T13:36:25.147Z,34.50
2018-07-13T13:38:54.219Z,35.30
2018-07-13T13:41:23.263Z,36.10
2018-07-13T13:48:49.760Z,36.50
2018-07-13T13:51:18.803Z,36.80
2018-07-13T13:53:47.848Z,36.70
2018-07-13T13:56:16.948Z,37.80
2018-07-13T13:58:45.984Z,37.70
2018-07-13T14:01:15.056Z,36.30
2018-07-13T14:03:44.112Z,37.00
2018-07-13T14:16:07.948Z,36.90
2018-07-13T14:21:05.983Z,38.70
2018-07-13T14:23:35.040Z,36.40
2018-07-13T14:31:01.501Z,32.50
2018-07-13T14:33:30.548Z,31.90
2018-07-13T14:35:59.625Z,32.70
2018-07-13T14:38:28.683Z,33.40
2018-07-13T14:40:57.755Z,33.80
2018-07-13T14:43:26.816Z,33.70
2018-07-13T14:45:55.880Z,35.00
2018-07-13T14:48:24.928Z,35.60
2018-07-13T14:50:54.004Z,34.90
2018-07-13T14:53:23.100Z,35.10
2018-07-13T14:55:52.142Z,35.60
2018-07-13T14:58:21.193Z,36.40
2018-07-13T15:00:50.255Z,35.60
2018-07-13T15:03:19.295Z,35.50
2018-07-13T15:05:48.403Z,34.70
2018-07-13T15:08:17.466Z,33.40
2018-07-13T15:10:46.549Z,31.90
2018-07-13T15:15:44.313Z,31.30
2018-07-13T15:18:13.372Z,32.60
2018-07-13T15:20:42.426Z,33.80
2018-07-13T15:23:11.499Z,35.30
2018-07-13T15:25:40.550Z,36.60
2018-07-13T15:28:09.624Z,36.30
2018-07-13T15:30:38.680Z,35.10
2018-07-13T15:33:07.768Z,34.10
2018-07-13T15:35:36.834Z,32.80
2018-07-13T15:38:05.916Z,32.70
2018-07-13T15:40:34.983Z,33.20
2018-07-13T15:45:32.747Z,35.40
2018-07-13T15:48:01.827Z,36.60
2018-07-13T15:50:30.879Z,38.20
2018-07-13T15:52:59.963Z,37.80
2018-07-13T15:58:02.109Z,37.70
2018-07-13T16:00:31.163Z,38.60
2018-07-13T16:03:00.244Z,37.50
2018-07-13T16:05:29.343Z,36.80
2018-07-13T16:07:58.412Z,37.30
2018-07-13T16:10:27.594Z,37.40
2018-07-13T16:12:56.723Z,36.90
2018-07-13T16:17:54.499Z,36.20
2018-07-13T16:20:23.539Z,36.40
2018-07-13T16:22:52.607Z,36.10
2018-07-13T16:27:50.468Z,37.00
2018-07-13T16:30:19.552Z,37.80
2018-07-13T16:32:48.627Z,37.00
2018-07-13T16:35:17.685Z,36.90
2018-07-13T16:37:46.761Z,37.10
2018-07-13T16:40:15.805Z,36.90
2018-07-13T16:42:44.982Z,36.80
2018-07-13T16:45:14.140Z,36.60
2018-07-13T16:47:43.116Z,37.00
2018-07-13T16:50:12.166Z,35.80
2018-07-13T16:52:41.254Z,35.80
2018-07-13T16:57:38.959Z,34.50
2018-07-13T17:00:08.016Z,34.60
2018-07-13T17:02:37.060Z,34.50
2018-07-13T17:05:06.119Z,34.90
2018-07-13T17:10:04.015Z,34.70
2018-07-13T17:15:01.884Z,36.50
2018-07-13T17:19:59.667Z,36.00
2018-07-13T17:22:29.635Z,36.40
2018-07-13T17:24:58.735Z,35.80
2018-07-13T17:29:56.899Z,34.00
2018-07-13T17:32:26.196Z,34.30
2018-07-13T17:34:56.059Z,34.60
2018-07-13T17:37:25.120Z,34.50
2018-07-13T17:39:54.295Z,33.60
2018-07-13T17:44:52.076Z,33.20
2018-07-13T17:47:21.150Z,32.70
2018-07-13T17:49:50.232Z,32.10
2018-07-13T17:52:19.300Z,32.10
2018-07-13T17:54:48.392Z,32.30
2018-07-13T17:57:17.455Z,32.80
2018-07-13T18:02:15.211Z,32.60
2018-07-13T18:04:44.288Z,32.10
2018-07-13T18:07:20.052Z,31.80
2018-07-13T18:09:49.138Z,31.60
2018-07-13T18:12:18.191Z,31.10
2018-07-13T18:14:47.264Z,31.10
2018-07-13T18:19:45.008Z,31.60
2018-07-13T18:22:14.059Z,31.40
2018-07-13T18:24:43.136Z,31.60
2018-07-13T18:27:12.380Z,31.60
2018-07-13T18:29:41.469Z,30.70
2018-07-13T18:32:10.522Z,30.00
2018-07-13T18:34:39.604Z,29.50
2018-07-13T18:37:08.662Z,28.90
2018-07-13T18:39:37.986Z,28.60
2018-07-13T18:42:07.127Z,28.50
2018-07-13T18:47:05.079Z,28.10
2018-07-13T18:49:34.140Z,27.60
2018-07-13T18:52:03.203Z,26.60
2018-07-13T18:57:00.979Z,25.00
2018-07-13T18:59:30.061Z,24.50
2018-07-13T19:01:59.152Z,24.10
2018-07-13T19:04:28.223Z,23.80
2018-07-13T19:06:57.300Z,23.50
2018-07-13T19:09:26.440Z,23.40
2018-07-13T19:11:55.491Z,23.10
2018-07-13T19:14:24.536Z,22.90
2018-07-13T19:16:53.595Z,22.70
2018-07-13T19:19:22.631Z,22.50
2018-07-13T19:21:51.876Z,22.30
2018-07-13T19:24:20.934Z,22.20
2018-07-13T19:26:50.004Z,22.00
2018-07-13T19:29:19.044Z,21.90
2018-07-13T19:34:16.845Z,21.70
2018-07-13T19:36:45.912Z,21.50
2018-07-13T19:39:14.947Z,21.30
2018-07-13T19:41:44.010Z,21.20
2018-07-13T19:44:13.039Z,21.10
2018-07-13T19:46:42.195Z,21.00
2018-07-13T19:49:11.176Z,20.90
2018-07-13T19:51:40.298Z,20.90
2018-07-13T19:54:09.365Z,20.80
2018-07-13T19:56:38.428Z,20.70
2018-07-13T19:59:07.494Z,20.60
2018-07-13T20:04:05.583Z,20.40
2018-07-13T20:06:34.633Z,20.40
2018-07-13T20:09:04.682Z,20.30
2018-07-13T20:11:33.754Z,20.20
2018-07-13T20:14:02.836Z,20.10
2018-07-13T20:16:31.892Z,20.00
2018-07-13T20:19:01.010Z,20.00
2018-07-13T20:21:30.093Z,19.90
2018-07-13T20:23:59.160Z,19.80
2018-07-13T20:26:28.277Z,19.70
2018-07-13T20:28:57.316Z,19.70
2018-07-13T20:31:26.367Z,19.70
2018-07-13T20:33:55.456Z,19.50
2018-07-13T20:41:21.895Z,19.30
2018-07-13T20:46:21.388Z,19.20
2018-07-13T20:48:50.464Z,19.10
2018-07-13T20:51:19.523Z,19.00
2018-07-13T20:53:48.661Z,19.00
2018-07-13T20:56:17.725Z,18.90
2018-07-13T21:01:15.495Z,18.80
2018-07-13T21:03:44.573Z,18.70
2018-07-13T21:06:13.628Z,18.70
2018-07-13T21:08:42.712Z,18.70
2018-07-13T21:11:11.768Z,18.60
2018-07-13T21:13:40.883Z,18.50
2018-07-13T21:16:09.922Z,18.50
2018-07-13T21:18:39.388Z,18.60
2018-07-13T21:23:37.134Z,18.40
2018-07-13T21:26:06.367Z,18.40
2018-07-13T21:31:04.188Z,18.50
2018-07-13T21:33:34.780Z,18.50
2018-07-13T21:36:03.818Z,18.40
2018-07-13T21:38:32.883Z,18.30
2018-07-13T21:41:01.927Z,18.30
2018-07-13T21:43:31.132Z,18.20
2018-07-13T21:46:00.190Z,18.00
2018-07-13T21:48:29.246Z,17.70
2018-07-13T21:50:58.306Z,17.50
2018-07-13T21:53:27.363Z,17.40
2018-07-13T21:58:25.179Z,17.10
2018-07-13T22:00:54.251Z,17.10
2018-07-13T22:03:23.304Z,17.10
2018-07-13T22:05:52.380Z,17.00
2018-07-13T22:08:21.456Z,17.00
2018-07-13T22:10:50.533Z,16.90
2018-07-13T22:13:19.604Z,16.70
2018-07-13T22:15:49.164Z,16.60
2018-07-13T22:18:18.211Z,16.40
2018-07-13T22:20:47.288Z,16.30
2018-07-13T22:23:16.573Z,16.20
2018-07-13T22:25:45.656Z,16.10
2018-07-13T22:28:14.711Z,16.00
2018-07-13T22:33:12.472Z,15.90
2018-07-13T22:35:41.543Z,15.80
2018-07-13T22:38:10.587Z,15.70
2018-07-13T22:43:08.508Z,15.60
2018-07-13T22:45:37.579Z,15.60
2018-07-13T22:48:06.623Z,15.60
2018-07-13T22:50:35.690Z,15.70
2018-07-13T22:53:04.760Z,15.70
2018-07-13T22:55:33.823Z,15.80
2018-07-13T22:58:02.892Z,15.80
2018-07-13T23:00:31.977Z,15.80
2018-07-13T23:03:01.025Z,15.70
2018-07-13T23:05:30.090Z,15.60
2018-07-13T23:07:59.192Z,15.50
2018-07-13T23:10:28.267Z,15.60
2018-07-13T23:12:57.324Z,15.50
2018-07-13T23:20:23.861Z,15.40
2018-07-13T23:22:53.119Z,15.20
2018-07-13T23:25:22.168Z,15.10
2018-07-13T23:27:51.247Z,15.00
2018-07-13T23:30:20.291Z,14.90
2018-07-13T23:35:18.056Z,14.80
2018-07-13T23:37:47.230Z,14.80
2018-07-13T23:40:16.320Z,14.70
2018-07-13T23:42:45.383Z,14.60
2018-07-13T23:45:14.435Z,14.60
2018-07-13T23:47:43.532Z,14.70
2018-07-13T23:50:12.612Z,14.60
2018-07-13T23:52:41.678Z,14.50
2018-07-13T23:55:10.744Z,14.50
2018-07-13T23:57:39.815Z,14.50
